Hills and Dales, Indiana
Current Conditions -  °F | °C
As of 9:53 PM on Tuesday 21 Oct 2014 (Local Time) from KMIE Reporting Station
Overcast Overcast  
Wind Chill: 43°   Ceiling: 4400
Heat Index: 48°   Visibility: 10mi
Dew Point: 38°   Wind: 10mph
Humidity: 68%   Direction: 40°NE
Pressure: 30.19"   Gusts: NA
Location:  40.15°N, 85.2628°W
Report Text: KMIE 220153Z 04009KT 10SM OVC044 09/03 A3019 RMK AO2 SLP223 T00890033
Loading
Personal Weather Stations






























Interactive Weather Map
Tropical Storm Tracking
New forecast layout! Learn more

10-Day Weather Forecast

Advertisements
Track Severe Weather on mobile